sensor_id;sensor_type;location;lat;lon;timestamp;P1;durP1;ratioP1;P2;durP2;ratioP2
15667;SDS011;7934;48.710;9.024;2024-02-26T00:02:21;3.20;;;2.30;;
15667;SDS011;7934;48.710;9.024;2024-02-26T00:04:49;2.40;;;2.20;;
15667;SDS011;7934;48.710;9.024;2024-02-26T00:07:17;3.67;;;2.10;;
15667;SDS011;7934;48.710;9.024;2024-02-26T00:09:47;1.70;;;1.70;;
15667;SDS011;7934;48.710;9.024;2024-02-26T00:12:17;3.33;;;1.97;;
15667;SDS011;7934;48.710;9.024;2024-02-26T00:14:45;2.10;;;1.90;;
15667;SDS011;7934;48.710;9.024;2024-02-26T00:17:14;2.30;;;2.10;;
15667;SDS011;7934;48.710;9.024;2024-02-26T00:19:46;6.60;;;1.97;;
15667;SDS011;7934;48.710;9.024;2024-02-26T00:22:13;2.30;;;2.20;;
15667;SDS011;7934;48.710;9.024;2024-02-26T00:24:44;1.87;;;1.77;;
15667;SDS011;7934;48.710;9.024;2024-02-26T00:27:14;2.20;;;1.80;;
15667;SDS011;7934;48.710;9.024;2024-02-26T00:29:50;1.93;;;1.73;;
15667;SDS011;7934;48.710;9.024;2024-02-26T00:32:31;3.27;;;2.57;;
15667;SDS011;7934;48.710;9.024;2024-02-26T00:35:17;3.23;;;2.13;;
15667;SDS011;7934;48.710;9.024;2024-02-26T00:37:45;2.17;;;2.00;;
15667;SDS011;7934;48.710;9.024;2024-02-26T00:40:15;5.17;;;2.17;;
15667;SDS011;7934;48.710;9.024;2024-02-26T00:42:47;2.23;;;2.03;;
15667;SDS011;7934;48.710;9.024;2024-02-26T00:45:16;2.73;;;1.70;;
15667;SDS011;7934;48.710;9.024;2024-02-26T00:47:43;1.90;;;1.80;;
15667;SDS011;7934;48.710;9.024;2024-02-26T00:50:12;2.87;;;1.63;;
15667;SDS011;7934;48.710;9.024;2024-02-26T00:52:49;2.87;;;1.90;;
15667;SDS011;7934;48.710;9.024;2024-02-26T00:55:17;1.40;;;1.40;;
15667;SDS011;7934;48.710;9.024;2024-02-26T00:57:44;1.10;;;1.10;;
15667;SDS011;7934;48.710;9.024;2024-02-26T01:00:12;2.67;;;1.30;;
15667;SDS011;7934;48.710;9.024;2024-02-26T01:02:40;1.37;;;1.27;;
15667;SDS011;7934;48.710;9.024;2024-02-26T01:05:08;1.10;;;1.10;;
15667;SDS011;7934;48.710;9.024;2024-02-26T01:07:35;1.17;;;1.17;;
15667;SDS011;7934;48.710;9.024;2024-02-26T01:10:07;1.17;;;1.17;;
15667;SDS011;7934;48.710;9.024;2024-02-26T01:12:43;1.57;;;1.17;;
15667;SDS011;7934;48.710;9.024;2024-02-26T01:15:11;1.27;;;1.27;;
15667;SDS011;7934;48.710;9.024;2024-02-26T01:17:38;1.47;;;1.37;;
15667;SDS011;7934;48.710;9.024;2024-02-26T01:20:06;2.37;;;1.40;;
15667;SDS011;7934;48.710;9.024;2024-02-26T01:22:34;1.30;;;1.17;;
15667;SDS011;7934;48.710;9.024;2024-02-26T01:25:02;1.40;;;1.30;;
15667;SDS011;7934;48.710;9.024;2024-02-26T01:27:31;2.37;;;1.53;;
15667;SDS011;7934;48.710;9.024;2024-02-26T01:30:01;1.30;;;1.20;;
15667;SDS011;7934;48.710;9.024;2024-02-26T01:32:30;1.30;;;1.30;;
15667;SDS011;7934;48.710;9.024;2024-02-26T01:34:58;1.33;;;1.30;;
15667;SDS011;7934;48.710;9.024;2024-02-26T01:37:25;1.17;;;1.07;;
15667;SDS011;7934;48.710;9.024;2024-02-26T01:39:54;1.37;;;1.20;;
15667;SDS011;7934;48.710;9.024;2024-02-26T01:42:22;2.67;;;1.60;;
15667;SDS011;7934;48.710;9.024;2024-02-26T01:44:52;1.33;;;1.23;;
15667;SDS011;7934;48.710;9.024;2024-02-26T01:47:19;2.63;;;1.20;;
15667;SDS011;7934;48.710;9.024;2024-02-26T01:49:47;1.37;;;1.30;;
15667;SDS011;7934;48.710;9.024;2024-02-26T01:52:15;1.43;;;1.40;;
15667;SDS011;7934;48.710;9.024;2024-02-26T01:54:43;1.40;;;1.30;;
15667;SDS011;7934;48.710;9.024;2024-02-26T01:57:15;1.43;;;1.30;;
15667;SDS011;7934;48.710;9.024;2024-02-26T01:59:44;1.40;;;1.40;;
15667;SDS011;7934;48.710;9.024;2024-02-26T02:02:14;1.40;;;1.37;;
15667;SDS011;7934;48.710;9.024;2024-02-26T02:04:42;1.63;;;1.30;;
15667;SDS011;7934;48.710;9.024;2024-02-26T02:07:10;2.50;;;1.70;;
15667;SDS011;7934;48.710;9.024;2024-02-26T02:09:38;1.90;;;1.80;;
15667;SDS011;7934;48.710;9.024;2024-02-26T02:12:05;1.73;;;1.63;;
15667;SDS011;7934;48.710;9.024;2024-02-26T02:14:33;1.90;;;1.80;;
15667;SDS011;7934;48.710;9.024;2024-02-26T02:17:01;1.70;;;1.67;;
15667;SDS011;7934;48.710;9.024;2024-02-26T02:19:30;1.25;;;1.25;;
15667;SDS011;7934;48.710;9.024;2024-02-26T02:21:59;1.40;;;1.40;;
15667;SDS011;7934;48.710;9.024;2024-02-26T02:24:28;1.47;;;1.40;;
15667;SDS011;7934;48.710;9.024;2024-02-26T02:26:55;1.10;;;1.10;;
15667;SDS011;7934;48.710;9.024;2024-02-26T02:29:23;1.10;;;1.10;;
15667;SDS011;7934;48.710;9.024;2024-02-26T02:31:52;1.10;;;1.10;;
15667;SDS011;7934;48.710;9.024;2024-02-26T02:34:21;1.33;;;1.10;;
15667;SDS011;7934;48.710;9.024;2024-02-26T02:36:49;1.23;;;1.17;;
15667;SDS011;7934;48.710;9.024;2024-02-26T02:39:17;1.27;;;1.27;;
15667;SDS011;7934;48.710;9.024;2024-02-26T02:41:45;1.20;;;1.20;;
15667;SDS011;7934;48.710;9.024;2024-02-26T02:44:14;1.80;;;0.83;;
15667;SDS011;7934;48.710;9.024;2024-02-26T02:46:43;1.10;;;0.70;;
15667;SDS011;7934;48.710;9.024;2024-02-26T02:49:10;1.17;;;0.83;;
15667;SDS011;7934;48.710;9.024;2024-02-26T02:51:39;0.77;;;0.77;;
15667;SDS011;7934;48.710;9.024;2024-02-26T02:54:06;3.60;;;0.70;;
15667;SDS011;7934;48.710;9.024;2024-02-26T02:56:35;0.80;;;0.70;;
15667;SDS011;7934;48.710;9.024;2024-02-26T02:59:03;1.13;;;0.83;;
15667;SDS011;7934;48.710;9.024;2024-02-26T03:01:31;0.60;;;0.60;;
15667;SDS011;7934;48.710;9.024;2024-02-26T03:03:58;1.27;;;0.80;;
15667;SDS011;7934;48.710;9.024;2024-02-26T03:06:29;0.50;;;0.50;;
15667;SDS011;7934;48.710;9.024;2024-02-26T03:08:57;0.60;;;0.60;;
15667;SDS011;7934;48.710;9.024;2024-02-26T03:11:39;1.40;;;0.50;;
15667;SDS011;7934;48.710;9.024;2024-02-26T03:14:08;0.50;;;0.50;;
15667;SDS011;7934;48.710;9.024;2024-02-26T03:16:36;0.60;;;0.60;;
15667;SDS011;7934;48.710;9.024;2024-02-26T03:19:05;0.30;;;0.30;;
15667;SDS011;7934;48.710;9.024;2024-02-26T03:22:05;0.50;;;0.50;;
15667;SDS011;7934;48.710;9.024;2024-02-26T03:24:33;0.60;;;0.60;;
15667;SDS011;7934;48.710;9.024;2024-02-26T03:27:01;0.60;;;0.60;;
15667;SDS011;7934;48.710;9.024;2024-02-26T03:29:30;0.50;;;0.50;;
15667;SDS011;7934;48.710;9.024;2024-02-26T03:31:57;0.63;;;0.63;;
15667;SDS011;7934;48.710;9.024;2024-02-26T03:34:28;0.50;;;0.50;;
15667;SDS011;7934;48.710;9.024;2024-02-26T03:36:56;1.33;;;0.67;;
15667;SDS011;7934;48.710;9.024;2024-02-26T03:39:26;0.73;;;0.73;;
15667;SDS011;7934;48.710;9.024;2024-02-26T03:41:57;1.10;;;0.63;;
15667;SDS011;7934;48.710;9.024;2024-02-26T03:44:38;0.60;;;0.50;;
15667;SDS011;7934;48.710;9.024;2024-02-26T03:47:06;0.67;;;0.67;;
15667;SDS011;7934;48.710;9.024;2024-02-26T03:49:34;0.70;;;0.70;;
15667;SDS011;7934;48.710;9.024;2024-02-26T03:52:04;0.60;;;0.57;;
15667;SDS011;7934;48.710;9.024;2024-02-26T03:54:53;0.73;;;0.73;;
15667;SDS011;7934;48.710;9.024;2024-02-26T03:57:34;0.87;;;0.87;;
15667;SDS011;7934;48.710;9.024;2024-02-26T04:00:15;0.57;;;0.57;;
15667;SDS011;7934;48.710;9.024;2024-02-26T04:02:46;0.60;;;0.60;;
15667;SDS011;7934;48.710;9.024;2024-02-26T04:05:18;0.63;;;0.63;;
15667;SDS011;7934;48.710;9.024;2024-02-26T04:07:45;0.80;;;0.80;;
15667;SDS011;7934;48.710;9.024;2024-02-26T04:10:14;1.60;;;0.70;;
15667;SDS011;7934;48.710;9.024;2024-02-26T04:12:42;2.83;;;0.70;;
15667;SDS011;7934;48.710;9.024;2024-02-26T04:15:09;0.53;;;0.53;;
15667;SDS011;7934;48.710;9.024;2024-02-26T04:17:38;0.53;;;0.53;;
15667;SDS011;7934;48.710;9.024;2024-02-26T04:20:06;0.47;;;0.47;;
15667;SDS011;7934;48.710;9.024;2024-02-26T04:22:35;1.10;;;0.90;;
15667;SDS011;7934;48.710;9.024;2024-02-26T04:25:03;0.80;;;0.80;;
15667;SDS011;7934;48.710;9.024;2024-02-26T04:27:37;0.80;;;0.80;;
15667;SDS011;7934;48.710;9.024;2024-02-26T04:30:05;0.73;;;0.70;;
15667;SDS011;7934;48.710;9.024;2024-02-26T04:32:33;0.80;;;0.80;;
15667;SDS011;7934;48.710;9.024;2024-02-26T04:35:00;1.00;;;1.00;;
15667;SDS011;7934;48.710;9.024;2024-02-26T04:37:35;1.60;;;0.70;;
15667;SDS011;7934;48.710;9.024;2024-02-26T04:40:03;0.80;;;0.80;;
15667;SDS011;7934;48.710;9.024;2024-02-26T04:42:34;0.80;;;0.80;;
15667;SDS011;7934;48.710;9.024;2024-02-26T04:45:01;0.97;;;0.80;;
15667;SDS011;7934;48.710;9.024;2024-02-26T04:47:29;0.83;;;0.83;;
15667;SDS011;7934;48.710;9.024;2024-02-26T04:49:56;1.00;;;1.00;;
15667;SDS011;7934;48.710;9.024;2024-02-26T04:52:24;1.07;;;0.80;;
15667;SDS011;7934;48.710;9.024;2024-02-26T04:54:52;2.70;;;1.20;;
15667;SDS011;7934;48.710;9.024;2024-02-26T04:57:20;0.90;;;0.83;;
15667;SDS011;7934;48.710;9.024;2024-02-26T04:59:50;4.20;;;0.80;;
15667;SDS011;7934;48.710;9.024;2024-02-26T05:02:17;0.80;;;0.80;;
15667;SDS011;7934;48.710;9.024;2024-02-26T05:04:45;1.40;;;0.83;;
15667;SDS011;7934;48.710;9.024;2024-02-26T05:07:12;0.80;;;0.80;;
15667;SDS011;7934;48.710;9.024;2024-02-26T05:09:42;1.10;;;1.10;;
15667;SDS011;7934;48.710;9.024;2024-02-26T05:12:09;0.87;;;0.87;;
15667;SDS011;7934;48.710;9.024;2024-02-26T05:14:37;1.33;;;1.23;;
15667;SDS011;7934;48.710;9.024;2024-02-26T05:17:05;1.20;;;1.20;;
15667;SDS011;7934;48.710;9.024;2024-02-26T05:19:33;1.30;;;1.20;;
15667;SDS011;7934;48.710;9.024;2024-02-26T05:22:00;1.03;;;1.03;;
15667;SDS011;7934;48.710;9.024;2024-02-26T05:24:28;1.20;;;1.20;;
15667;SDS011;7934;48.710;9.024;2024-02-26T05:26:56;1.20;;;1.20;;
15667;SDS011;7934;48.710;9.024;2024-02-26T05:29:23;1.40;;;1.30;;
15667;SDS011;7934;48.710;9.024;2024-02-26T05:31:51;2.00;;;1.30;;
15667;SDS011;7934;48.710;9.024;2024-02-26T05:34:24;1.20;;;1.20;;
15667;SDS011;7934;48.710;9.024;2024-02-26T05:36:51;2.67;;;2.37;;
15667;SDS011;7934;48.710;9.024;2024-02-26T05:39:21;1.40;;;1.30;;
15667;SDS011;7934;48.710;9.024;2024-02-26T05:41:49;1.43;;;1.33;;
15667;SDS011;7934;48.710;9.024;2024-02-26T05:44:16;0.97;;;0.97;;
15667;SDS011;7934;48.710;9.024;2024-02-26T05:46:44;1.57;;;1.40;;
15667;SDS011;7934;48.710;9.024;2024-02-26T05:49:12;1.27;;;1.17;;
15667;SDS011;7934;48.710;9.024;2024-02-26T05:51:40;1.37;;;1.30;;
15667;SDS011;7934;48.710;9.024;2024-02-26T05:54:08;1.60;;;1.20;;
15667;SDS011;7934;48.710;9.024;2024-02-26T05:56:36;2.47;;;1.40;;
15667;SDS011;7934;48.710;9.024;2024-02-26T05:59:03;2.40;;;1.40;;
15667;SDS011;7934;48.710;9.024;2024-02-26T06:01:33;1.57;;;1.47;;
15667;SDS011;7934;48.710;9.024;2024-02-26T06:04:00;1.80;;;1.37;;
15667;SDS011;7934;48.710;9.024;2024-02-26T06:06:28;1.30;;;1.20;;
15667;SDS011;7934;48.710;9.024;2024-02-26T06:08:57;1.50;;;1.40;;
15667;SDS011;7934;48.710;9.024;2024-02-26T06:11:24;1.30;;;1.20;;
15667;SDS011;7934;48.710;9.024;2024-02-26T06:13:52;3.37;;;1.53;;
15667;SDS011;7934;48.710;9.024;2024-02-26T06:16:22;1.33;;;1.23;;
15667;SDS011;7934;48.710;9.024;2024-02-26T06:18:49;1.57;;;1.23;;
15667;SDS011;7934;48.710;9.024;2024-02-26T06:21:16;1.30;;;1.27;;
15667;SDS011;7934;48.710;9.024;2024-02-26T06:23:44;1.50;;;1.30;;
15667;SDS011;7934;48.710;9.024;2024-02-26T06:26:14;1.67;;;1.57;;
15667;SDS011;7934;48.710;9.024;2024-02-26T06:28:42;1.70;;;1.60;;
15667;SDS011;7934;48.710;9.024;2024-02-26T06:31:09;1.63;;;1.53;;
15667;SDS011;7934;48.710;9.024;2024-02-26T06:33:37;1.20;;;1.20;;
15667;SDS011;7934;48.710;9.024;2024-02-26T06:36:04;1.70;;;1.60;;
15667;SDS011;7934;48.710;9.024;2024-02-26T06:38:38;1.63;;;1.53;;
15667;SDS011;7934;48.710;9.024;2024-02-26T06:41:05;2.00;;;1.50;;
15667;SDS011;7934;48.710;9.024;2024-02-26T06:43:35;2.90;;;2.70;;
15667;SDS011;7934;48.710;9.024;2024-02-26T06:46:02;2.50;;;2.30;;
15667;SDS011;7934;48.710;9.024;2024-02-26T06:48:30;2.10;;;1.57;;
15667;SDS011;7934;48.710;9.024;2024-02-26T06:50:58;1.90;;;1.80;;
15667;SDS011;7934;48.710;9.024;2024-02-26T06:53:25;2.10;;;1.90;;
15667;SDS011;7934;48.710;9.024;2024-02-26T06:55:52;2.23;;;1.90;;
15667;SDS011;7934;48.710;9.024;2024-02-26T06:58:20;2.17;;;2.03;;
15667;SDS011;7934;48.710;9.024;2024-02-26T07:00:49;2.07;;;1.97;;
15667;SDS011;7934;48.710;9.024;2024-02-26T07:03:16;2.17;;;2.00;;
15667;SDS011;7934;48.710;9.024;2024-02-26T07:05:43;2.10;;;1.90;;
15667;SDS011;7934;48.710;9.024;2024-02-26T07:08:11;1.90;;;1.80;;
15667;SDS011;7934;48.710;9.024;2024-02-26T07:10:39;1.90;;;1.80;;
15667;SDS011;7934;48.710;9.024;2024-02-26T07:13:08;1.70;;;1.60;;
15667;SDS011;7934;48.710;9.024;2024-02-26T07:15:37;3.87;;;1.77;;
15667;SDS011;7934;48.710;9.024;2024-02-26T07:18:07;1.90;;;1.73;;
15667;SDS011;7934;48.710;9.024;2024-02-26T07:20:35;2.03;;;1.93;;
15667;SDS011;7934;48.710;9.024;2024-02-26T07:23:03;2.37;;;1.60;;
15667;SDS011;7934;48.710;9.024;2024-02-26T07:25:31;1.70;;;1.60;;
15667;SDS011;7934;48.710;9.024;2024-02-26T07:27:59;5.23;;;1.63;;
15667;SDS011;7934;48.710;9.024;2024-02-26T07:30:26;1.67;;;1.67;;
15667;SDS011;7934;48.710;9.024;2024-02-26T07:32:53;1.90;;;1.80;;
15667;SDS011;7934;48.710;9.024;2024-02-26T07:35:23;2.07;;;1.93;;
15667;SDS011;7934;48.710;9.024;2024-02-26T07:37:53;2.17;;;1.90;;
15667;SDS011;7934;48.710;9.024;2024-02-26T07:40:20;1.77;;;1.67;;
15667;SDS011;7934;48.710;9.024;2024-02-26T07:42:48;1.80;;;1.70;;
15667;SDS011;7934;48.710;9.024;2024-02-26T07:45:16;2.00;;;1.50;;
15667;SDS011;7934;48.710;9.024;2024-02-26T07:47:49;1.93;;;1.83;;
15667;SDS011;7934;48.710;9.024;2024-02-26T07:50:16;1.80;;;1.70;;
15667;SDS011;7934;48.710;9.024;2024-02-26T07:52:48;2.40;;;1.80;;
15667;SDS011;7934;48.710;9.024;2024-02-26T07:55:18;1.93;;;1.83;;
15667;SDS011;7934;48.710;9.024;2024-02-26T07:57:48;2.33;;;1.47;;
15667;SDS011;7934;48.710;9.024;2024-02-26T08:00:16;1.60;;;1.50;;
15667;SDS011;7934;48.710;9.024;2024-02-26T08:02:43;1.63;;;1.27;;
15667;SDS011;7934;48.710;9.024;2024-02-26T08:05:12;1.40;;;1.40;;
15667;SDS011;7934;48.710;9.024;2024-02-26T08:07:40;1.37;;;1.27;;
15667;SDS011;7934;48.710;9.024;2024-02-26T08:12:52;1.27;;;1.17;;
15667;SDS011;7934;48.710;9.024;2024-02-26T08:15:19;1.77;;;1.67;;
15667;SDS011;7934;48.710;9.024;2024-02-26T08:17:47;1.40;;;1.40;;
15667;SDS011;7934;48.710;9.024;2024-02-26T08:20:15;1.20;;;1.10;;
15667;SDS011;7934;48.710;9.024;2024-02-26T08:22:44;1.57;;;1.47;;
15667;SDS011;7934;48.710;9.024;2024-02-26T08:25:11;1.40;;;1.30;;
15667;SDS011;7934;48.710;9.024;2024-02-26T08:27:39;0.93;;;0.90;;
15667;SDS011;7934;48.710;9.024;2024-02-26T08:30:11;0.90;;;0.90;;
15667;SDS011;7934;48.710;9.024;2024-02-26T08:32:41;1.23;;;1.10;;
15667;SDS011;7934;48.710;9.024;2024-02-26T08:35:09;2.77;;;1.10;;
15667;SDS011;7934;48.710;9.024;2024-02-26T08:37:36;1.13;;;0.87;;
15667;SDS011;7934;48.710;9.024;2024-02-26T08:40:04;1.23;;;1.20;;
15667;SDS011;7934;48.710;9.024;2024-02-26T08:42:32;2.97;;;1.27;;
15667;SDS011;7934;48.710;9.024;2024-02-26T08:45:00;1.33;;;1.10;;
15667;SDS011;7934;48.710;9.024;2024-02-26T08:47:33;3.47;;;1.13;;
15667;SDS011;7934;48.710;9.024;2024-02-26T08:50:05;1.20;;;1.20;;
15667;SDS011;7934;48.710;9.024;2024-02-26T08:52:34;0.73;;;0.73;;
15667;SDS011;7934;48.710;9.024;2024-02-26T08:55:02;1.80;;;0.70;;
15667;SDS011;7934;48.710;9.024;2024-02-26T08:57:34;1.23;;;1.20;;
15667;SDS011;7934;48.710;9.024;2024-02-26T09:00:06;1.00;;;1.00;;
15667;SDS011;7934;48.710;9.024;2024-02-26T09:02:45;2.80;;;1.00;;
15667;SDS011;7934;48.710;9.024;2024-02-26T09:05:14;0.83;;;0.83;;
15667;SDS011;7934;48.710;9.024;2024-02-26T09:07:55;0.90;;;0.63;;
15667;SDS011;7934;48.710;9.024;2024-02-26T09:10:23;0.93;;;0.80;;
15667;SDS011;7934;48.710;9.024;2024-02-26T09:12:53;2.43;;;0.97;;
15667;SDS011;7934;48.710;9.024;2024-02-26T09:15:22;1.10;;;1.10;;
15667;SDS011;7934;48.710;9.024;2024-02-26T09:20:50;0.70;;;0.70;;
15667;SDS011;7934;48.710;9.024;2024-02-26T09:23:31;1.17;;;1.00;;
15667;SDS011;7934;48.710;9.024;2024-02-26T09:26:00;1.03;;;1.00;;
15667;SDS011;7934;48.710;9.024;2024-02-26T09:28:27;0.83;;;0.83;;
15667;SDS011;7934;48.710;9.024;2024-02-26T09:30:59;2.30;;;0.90;;
15667;SDS011;7934;48.710;9.024;2024-02-26T09:33:31;1.00;;;1.00;;
15667;SDS011;7934;48.710;9.024;2024-02-26T09:36:15;0.97;;;0.60;;
15667;SDS011;7934;48.710;9.024;2024-02-26T09:38:46;0.80;;;0.80;;
15667;SDS011;7934;48.710;9.024;2024-02-26T09:41:16;0.80;;;0.80;;
15667;SDS011;7934;48.710;9.024;2024-02-26T09:43:57;1.00;;;0.90;;
15667;SDS011;7934;48.710;9.024;2024-02-26T09:46:25;0.93;;;0.90;;
15667;SDS011;7934;48.710;9.024;2024-02-26T09:48:53;1.00;;;1.00;;
15667;SDS011;7934;48.710;9.024;2024-02-26T09:51:23;3.33;;;0.97;;
15667;SDS011;7934;48.710;9.024;2024-02-26T09:54:05;0.70;;;0.70;;
15667;SDS011;7934;48.710;9.024;2024-02-26T09:56:48;2.37;;;0.97;;
15667;SDS011;7934;48.710;9.024;2024-02-26T09:59:19;1.37;;;1.13;;
15667;SDS011;7934;48.710;9.024;2024-02-26T10:01:48;0.80;;;0.80;;
15667;SDS011;7934;48.710;9.024;2024-02-26T10:04:28;0.80;;;0.80;;
15667;SDS011;7934;48.710;9.024;2024-02-26T10:06:57;0.90;;;0.90;;
15667;SDS011;7934;48.710;9.024;2024-02-26T10:11:58;0.70;;;0.70;;
15667;SDS011;7934;48.710;9.024;2024-02-26T10:14:30;3.10;;;1.00;;
15667;SDS011;7934;48.710;9.024;2024-02-26T10:16:58;2.53;;;0.97;;
15667;SDS011;7934;48.710;9.024;2024-02-26T10:19:27;0.80;;;0.80;;
15667;SDS011;7934;48.710;9.024;2024-02-26T10:22:01;0.97;;;0.90;;
15667;SDS011;7934;48.710;9.024;2024-02-26T10:24:30;0.80;;;0.80;;
15667;SDS011;7934;48.710;9.024;2024-02-26T10:26:57;2.73;;;1.30;;
15667;SDS011;7934;48.710;9.024;2024-02-26T10:29:26;1.17;;;1.07;;
15667;SDS011;7934;48.710;9.024;2024-02-26T10:32:07;2.67;;;1.00;;
15667;SDS011;7934;48.710;9.024;2024-02-26T10:34:36;0.67;;;0.67;;
15667;SDS011;7934;48.710;9.024;2024-02-26T10:37:14;5.90;;;1.10;;
15667;SDS011;7934;48.710;9.024;2024-02-26T10:39:46;3.63;;;1.00;;
15667;SDS011;7934;48.710;9.024;2024-02-26T10:42:14;3.83;;;0.70;;
15667;SDS011;7934;48.710;9.024;2024-02-26T10:44:44;2.20;;;1.07;;
15667;SDS011;7934;48.710;9.024;2024-02-26T10:47:14;3.40;;;0.83;;
15667;SDS011;7934;48.710;9.024;2024-02-26T10:49:45;3.47;;;2.03;;
15667;SDS011;7934;48.710;9.024;2024-02-26T10:52:29;2.70;;;1.27;;
15667;SDS011;7934;48.710;9.024;2024-02-26T10:54:59;3.37;;;1.30;;
15667;SDS011;7934;48.710;9.024;2024-02-26T10:57:29;4.13;;;1.43;;
15667;SDS011;7934;48.710;9.024;2024-02-26T11:00:04;3.33;;;1.33;;
15667;SDS011;7934;48.710;9.024;2024-02-26T11:02:35;1.27;;;1.27;;
15667;SDS011;7934;48.710;9.024;2024-02-26T11:05:02;2.93;;;1.20;;
15667;SDS011;7934;48.710;9.024;2024-02-26T11:07:32;0.93;;;0.93;;
15667;SDS011;7934;48.710;9.024;2024-02-26T11:10:01;1.53;;;0.90;;
15667;SDS011;7934;48.710;9.024;2024-02-26T11:12:31;0.97;;;0.90;;
15667;SDS011;7934;48.710;9.024;2024-02-26T11:15:00;2.70;;;1.30;;
15667;SDS011;7934;48.710;9.024;2024-02-26T11:17:41;1.77;;;1.17;;
15667;SDS011;7934;48.710;9.024;2024-02-26T11:20:10;4.50;;;0.97;;
15667;SDS011;7934;48.710;9.024;2024-02-26T11:22:40;1.53;;;1.00;;
15667;SDS011;7934;48.710;9.024;2024-02-26T11:25:08;1.43;;;0.97;;
15667;SDS011;7934;48.710;9.024;2024-02-26T11:27:38;1.30;;;1.13;;
15667;SDS011;7934;48.710;9.024;2024-02-26T11:30:08;1.23;;;0.90;;
15667;SDS011;7934;48.710;9.024;2024-02-26T11:32:50;0.80;;;0.80;;
15667;SDS011;7934;48.710;9.024;2024-02-26T11:35:22;0.80;;;0.80;;
15667;SDS011;7934;48.710;9.024;2024-02-26T11:37:55;1.57;;;0.80;;
15667;SDS011;7934;48.710;9.024;2024-02-26T11:40:23;1.00;;;1.00;;
15667;SDS011;7934;48.710;9.024;2024-02-26T11:42:51;2.37;;;1.10;;
15667;SDS011;7934;48.710;9.024;2024-02-26T11:48:04;0.93;;;0.93;;
15667;SDS011;7934;48.710;9.024;2024-02-26T11:50:35;1.87;;;1.00;;
15667;SDS011;7934;48.710;9.024;2024-02-26T11:53:35;1.23;;;0.93;;
15667;SDS011;7934;48.710;9.024;2024-02-26T11:56:15;1.63;;;1.20;;
15667;SDS011;7934;48.710;9.024;2024-02-26T11:58:46;1.33;;;1.10;;
15667;SDS011;7934;48.710;9.024;2024-02-26T12:04:00;0.87;;;0.87;;
15667;SDS011;7934;48.710;9.024;2024-02-26T12:06:34;2.20;;;1.30;;
15667;SDS011;7934;48.710;9.024;2024-02-26T12:09:09;2.40;;;1.20;;
15667;SDS011;7934;48.710;9.024;2024-02-26T12:11:39;1.63;;;1.10;;
15667;SDS011;7934;48.710;9.024;2024-02-26T12:14:07;2.77;;;1.20;;
15667;SDS011;7934;48.710;9.024;2024-02-26T12:16:35;1.37;;;1.13;;
15667;SDS011;7934;48.710;9.024;2024-02-26T12:19:04;3.70;;;1.37;;
15667;SDS011;7934;48.710;9.024;2024-02-26T12:21:33;1.30;;;1.20;;
15667;SDS011;7934;48.710;9.024;2024-02-26T12:24:09;1.30;;;1.30;;
15667;SDS011;7934;48.710;9.024;2024-02-26T12:26:37;2.20;;;1.93;;
15667;SDS011;7934;48.710;9.024;2024-02-26T12:29:04;2.30;;;2.10;;
15667;SDS011;7934;48.710;9.024;2024-02-26T12:31:32;1.87;;;1.70;;
15667;SDS011;7934;48.710;9.024;2024-02-26T12:34:01;2.53;;;1.10;;
15667;SDS011;7934;48.710;9.024;2024-02-26T12:36:29;1.40;;;1.30;;
15667;SDS011;7934;48.710;9.024;2024-02-26T12:38:57;1.23;;;1.10;;
15667;SDS011;7934;48.710;9.024;2024-02-26T12:41:26;2.00;;;1.40;;
15667;SDS011;7934;48.710;9.024;2024-02-26T12:43:55;1.20;;;1.20;;
15667;SDS011;7934;48.710;9.024;2024-02-26T12:46:23;2.00;;;1.50;;
15667;SDS011;7934;48.710;9.024;2024-02-26T12:48:51;1.00;;;1.00;;
15667;SDS011;7934;48.710;9.024;2024-02-26T12:51:19;8.80;;;1.63;;
15667;SDS011;7934;48.710;9.024;2024-02-26T12:53:46;0.90;;;0.90;;
15667;SDS011;7934;48.710;9.024;2024-02-26T12:56:15;2.27;;;1.10;;
15667;SDS011;7934;48.710;9.024;2024-02-26T12:58:44;3.73;;;1.10;;
15667;SDS011;7934;48.710;9.024;2024-02-26T13:01:13;2.83;;;0.90;;
15667;SDS011;7934;48.710;9.024;2024-02-26T13:03:41;2.00;;;0.90;;
15667;SDS011;7934;48.710;9.024;2024-02-26T13:06:09;3.20;;;0.80;;
15667;SDS011;7934;48.710;9.024;2024-02-26T13:08:37;2.57;;;0.90;;
15667;SDS011;7934;48.710;9.024;2024-02-26T13:11:05;0.77;;;0.77;;
15667;SDS011;7934;48.710;9.024;2024-02-26T13:13:33;2.30;;;2.20;;
15667;SDS011;7934;48.710;9.024;2024-02-26T13:16:24;1.27;;;0.80;;
15667;SDS011;7934;48.710;9.024;2024-02-26T13:18:53;0.73;;;0.73;;
15667;SDS011;7934;48.710;9.024;2024-02-26T13:21:22;0.50;;;0.50;;
15667;SDS011;7934;48.710;9.024;2024-02-26T13:23:52;0.60;;;0.60;;
15667;SDS011;7934;48.710;9.024;2024-02-26T13:26:21;0.60;;;0.60;;
15667;SDS011;7934;48.710;9.024;2024-02-26T13:28:58;0.63;;;0.63;;
15667;SDS011;7934;48.710;9.024;2024-02-26T13:31:28;0.77;;;0.77;;
15667;SDS011;7934;48.710;9.024;2024-02-26T13:33:55;0.67;;;0.67;;
15667;SDS011;7934;48.710;9.024;2024-02-26T13:36:24;0.67;;;0.60;;
15667;SDS011;7934;48.710;9.024;2024-02-26T13:38:52;0.77;;;0.60;;
15667;SDS011;7934;48.710;9.024;2024-02-26T13:41:20;0.40;;;0.40;;
15667;SDS011;7934;48.710;9.024;2024-02-26T13:43:47;0.83;;;0.60;;
15667;SDS011;7934;48.710;9.024;2024-02-26T13:46:15;0.60;;;0.60;;
15667;SDS011;7934;48.710;9.024;2024-02-26T13:48:44;1.00;;;0.40;;
15667;SDS011;7934;48.710;9.024;2024-02-26T13:51:13;1.63;;;0.50;;
15667;SDS011;7934;48.710;9.024;2024-02-26T13:53:42;0.67;;;0.67;;
15667;SDS011;7934;48.710;9.024;2024-02-26T13:56:12;1.50;;;0.63;;
15667;SDS011;7934;48.710;9.024;2024-02-26T13:58:40;0.70;;;0.70;;
15667;SDS011;7934;48.710;9.024;2024-02-26T14:01:18;0.50;;;0.50;;
15667;SDS011;7934;48.710;9.024;2024-02-26T14:03:53;0.47;;;0.47;;
15667;SDS011;7934;48.710;9.024;2024-02-26T14:06:23;1.50;;;1.00;;
15667;SDS011;7934;48.710;9.024;2024-02-26T14:08:51;0.87;;;0.57;;
15667;SDS011;7934;48.710;9.024;2024-02-26T14:11:18;1.53;;;0.50;;
15667;SDS011;7934;48.710;9.024;2024-02-26T14:13:45;0.50;;;0.50;;
15667;SDS011;7934;48.710;9.024;2024-02-26T14:16:12;0.50;;;0.50;;
15667;SDS011;7934;48.710;9.024;2024-02-26T14:18:40;2.50;;;0.60;;
15667;SDS011;7934;48.710;9.024;2024-02-26T14:21:13;1.67;;;0.73;;
15667;SDS011;7934;48.710;9.024;2024-02-26T14:23:40;0.60;;;0.60;;
15667;SDS011;7934;48.710;9.024;2024-02-26T14:26:09;1.53;;;0.77;;
15667;SDS011;7934;48.710;9.024;2024-02-26T14:28:37;1.13;;;0.73;;
15667;SDS011;7934;48.710;9.024;2024-02-26T14:31:05;0.63;;;0.57;;
15667;SDS011;7934;48.710;9.024;2024-02-26T14:33:37;0.80;;;0.80;;
15667;SDS011;7934;48.710;9.024;2024-02-26T14:36:05;0.80;;;0.80;;
15667;SDS011;7934;48.710;9.024;2024-02-26T14:38:34;0.50;;;0.50;;
15667;SDS011;7934;48.710;9.024;2024-02-26T14:41:01;0.80;;;0.80;;
15667;SDS011;7934;48.710;9.024;2024-02-26T14:43:28;1.63;;;0.70;;
15667;SDS011;7934;48.710;9.024;2024-02-26T14:45:57;1.00;;;0.97;;
15667;SDS011;7934;48.710;9.024;2024-02-26T14:48:24;1.37;;;1.27;;
15667;SDS011;7934;48.710;9.024;2024-02-26T14:50:51;1.00;;;1.00;;
15667;SDS011;7934;48.710;9.024;2024-02-26T14:53:19;1.20;;;1.20;;
15667;SDS011;7934;48.710;9.024;2024-02-26T14:55:49;1.90;;;1.10;;
15667;SDS011;7934;48.710;9.024;2024-02-26T14:58:17;6.90;;;1.30;;
15667;SDS011;7934;48.710;9.024;2024-02-26T15:00:44;0.87;;;0.87;;
15667;SDS011;7934;48.710;9.024;2024-02-26T15:03:12;1.00;;;1.00;;
15667;SDS011;7934;48.710;9.024;2024-02-26T15:05:39;4.13;;;1.37;;
15667;SDS011;7934;48.710;9.024;2024-02-26T15:08:08;1.80;;;1.00;;
15667;SDS011;7934;48.710;9.024;2024-02-26T15:10:39;1.57;;;1.33;;
15667;SDS011;7934;48.710;9.024;2024-02-26T15:13:14;2.10;;;1.17;;
15667;SDS011;7934;48.710;9.024;2024-02-26T15:15:43;2.20;;;1.20;;
15667;SDS011;7934;48.710;9.024;2024-02-26T15:18:10;2.00;;;1.10;;
15667;SDS011;7934;48.710;9.024;2024-02-26T15:20:40;2.13;;;0.80;;
15667;SDS011;7934;48.710;9.024;2024-02-26T15:23:08;2.10;;;1.00;;
15667;SDS011;7934;48.710;9.024;2024-02-26T15:25:39;2.27;;;0.90;;
15667;SDS011;7934;48.710;9.024;2024-02-26T15:28:06;1.00;;;1.00;;
15667;SDS011;7934;48.710;9.024;2024-02-26T15:30:36;0.80;;;0.80;;